Terminal Aerodrome Forecast
Issued by NWS

Home | Current Version | Previous Version | Graphics & Text | Print | Product List | Glossary On
Versions: 1 2 3 4 5 6 7 8 9 10 11 12 13 14 15 16 17 18
540
FTUS43 KBIS 022330
TAFDIK
TAF
KDIK 022330Z 0300/0324 02005KT P6SM SCT025 BKN070
     FM031200 28012KT P6SM OVC020=

USA.gov is the U.S. government's official web portal to all federal, state and local government web resources and services.